createdAt,value
2023-01-13T00:54:25.025Z,25.00
2023-01-13T00:55:25.974Z,25.00
2023-01-13T00:56:39.736Z,25.00
2023-01-13T00:57:25.963Z,25.00
2023-01-13T00:58:25.949Z,25.00
2023-01-13T00:59:25.946Z,25.00
2023-01-13T01:00:25.930Z,25.00
2023-01-13T01:01:26.042Z,25.00
2023-01-13T01:02:25.981Z,0.00
2023-01-13T01:03:25.901Z,0.00
2023-01-13T01:04:25.899Z,0.00
2023-01-13T01:05:25.889Z,0.00
2023-01-13T01:06:25.878Z,0.00
2023-01-13T01:07:25.879Z,0.00
2023-01-13T01:08:25.865Z,0.00
2023-01-13T01:09:25.847Z,0.00
2023-01-13T01:10:25.863Z,0.00
2023-01-13T01:11:25.839Z,10.61
2023-01-13T01:12:25.832Z,25.00
2023-01-13T01:13:25.823Z,25.72
2023-01-13T01:14:25.806Z,26.51
2023-01-13T01:15:25.792Z,26.52
2023-01-13T01:16:25.879Z,25.86
2023-01-13T01:17:25.773Z,25.77
2023-01-13T01:18:25.808Z,26.25
2023-01-13T01:19:25.769Z,26.15
2023-01-13T01:20:25.763Z,24.44
2023-01-13T01:21:25.746Z,27.24
2023-01-13T01:22:25.729Z,25.27
2023-01-13T01:23:25.724Z,25.35
2023-01-13T01:24:25.720Z,27.35
2023-01-13T01:25:25.708Z,25.00
2023-01-13T01:26:25.726Z,26.00
2023-01-13T01:27:25.689Z,27.43
2023-01-13T01:28:25.677Z,27.91
2023-01-13T01:29:25.700Z,27.11
2023-01-13T01:30:25.662Z,25.15
2023-01-13T01:31:25.698Z,25.00
2023-01-13T01:32:25.640Z,28.36
2023-01-13T01:33:25.632Z,25.00
2023-01-13T01:34:25.633Z,25.76
2023-01-13T01:35:25.620Z,26.06
2023-01-13T01:36:25.614Z,26.84
2023-01-13T01:37:25.594Z,26.38
2023-01-13T01:38:25.588Z,25.78
2023-01-13T01:39:25.610Z,26.33
2023-01-13T01:40:25.568Z,25.98
2023-01-13T01:41:25.566Z,29.56
2023-01-13T01:42:25.589Z,25.00
2023-01-13T01:43:25.540Z,26.05
2023-01-13T01:44:25.537Z,26.05
2023-01-13T01:45:25.527Z,25.52
2023-01-13T01:46:25.606Z,28.25
2023-01-13T01:47:25.512Z,26.83
2023-01-13T01:48:25.499Z,26.76
2023-01-13T01:49:25.495Z,29.13
2023-01-13T01:50:26.081Z,25.32
2023-01-13T01:51:25.471Z,26.81
2023-01-13T01:52:25.466Z,27.27
2023-01-13T01:53:25.466Z,25.32
2023-01-13T01:54:25.449Z,26.03
2023-01-13T01:55:25.443Z,26.16
2023-01-13T01:56:25.431Z,26.51
2023-01-13T01:57:25.435Z,26.61
2023-01-13T01:58:25.435Z,25.10
2023-01-13T01:59:25.399Z,27.19
2023-01-13T02:00:25.392Z,25.48
2023-01-13T02:01:25.546Z,26.30
2023-01-13T02:02:25.433Z,26.10
2023-01-13T02:03:25.376Z,25.55
2023-01-13T02:04:25.360Z,26.64
2023-01-13T02:05:25.347Z,26.78
2023-01-13T02:06:25.350Z,28.13
2023-01-13T02:07:25.384Z,26.48
2023-01-13T02:08:25.327Z,30.10
2023-01-13T02:09:25.315Z,26.26
2023-01-13T02:10:25.317Z,25.61
2023-01-13T02:11:25.304Z,27.01
2023-01-13T02:12:25.323Z,28.70
2023-01-13T02:13:25.280Z,29.19
2023-01-13T02:14:25.296Z,26.02
2023-01-13T02:15:25.263Z,27.14
2023-01-13T02:16:25.307Z,25.49
2023-01-13T02:17:25.247Z,27.03
2023-01-13T02:18:25.245Z,29.68
2023-01-13T02:19:25.233Z,28.09
2023-01-13T02:20:25.216Z,29.20
2023-01-13T02:21:25.215Z,27.85
2023-01-13T02:22:25.202Z,27.95
2023-01-13T02:23:25.197Z,27.98
2023-01-13T02:24:25.196Z,25.44
2023-01-13T02:25:25.197Z,29.50
2023-01-13T02:26:25.167Z,27.41
2023-01-13T02:27:25.156Z,27.09
2023-01-13T02:28:25.157Z,26.52
2023-01-13T02:29:25.140Z,28.46
2023-01-13T02:30:25.167Z,28.49
2023-01-13T02:31:25.205Z,28.29
2023-01-13T02:32:25.119Z,26.77
2023-01-13T02:33:25.129Z,27.11
2023-01-13T02:34:25.110Z,26.09
2023-01-13T02:35:25.095Z,29.98
2023-01-13T02:36:25.084Z,29.44
2023-01-13T02:37:25.080Z,28.81
2023-01-13T02:38:25.071Z,29.21
2023-01-13T02:39:25.054Z,28.48
2023-01-13T02:40:25.071Z,28.43
2023-01-13T02:41:25.044Z,31.31
2023-01-13T02:42:25.034Z,32.34
2023-01-13T02:43:25.020Z,29.19
2023-01-13T02:44:25.013Z,28.39
2023-01-13T02:45:25.049Z,29.54
2023-01-13T02:46:25.027Z,28.19
2023-01-13T02:47:24.993Z,28.48
2023-01-13T02:48:25.008Z,29.11
2023-01-13T02:49:24.964Z,26.46
2023-01-13T02:50:24.974Z,27.49
2023-01-13T02:51:24.943Z,29.62
2023-01-13T02:52:24.939Z,27.24
2023-01-13T02:53:24.932Z,29.65
2023-01-13T02:54:24.920Z,30.49
2023-01-13T02:55:24.912Z,30.96
2023-01-13T02:56:24.904Z,28.34
2023-01-13T02:57:24.892Z,29.30
2023-01-13T02:58:24.943Z,28.46
2023-01-13T02:59:24.874Z,28.30
2023-01-13T03:00:24.866Z,26.19
2023-01-13T03:01:25.008Z,25.56
2023-01-13T03:02:24.922Z,27.84
2023-01-13T03:03:24.903Z,29.94
2023-01-13T03:04:24.837Z,27.03
2023-01-13T03:05:24.823Z,29.64
2023-01-13T03:06:24.814Z,29.47
2023-01-13T03:07:24.811Z,28.95
2023-01-13T03:08:24.799Z,26.31
2023-01-13T03:09:24.802Z,30.09
2023-01-13T03:10:24.784Z,32.07
2023-01-13T03:11:24.773Z,27.98
2023-01-13T03:12:24.760Z,28.60
2023-01-13T03:13:24.753Z,26.68
2023-01-13T03:14:24.743Z,28.07
2023-01-13T03:15:24.743Z,28.31
2023-01-13T03:16:24.796Z,27.59
2023-01-13T03:17:24.736Z,27.81
2023-01-13T03:18:24.728Z,30.59
2023-01-13T03:19:24.705Z,28.20
2023-01-13T03:20:24.691Z,27.96
2023-01-13T03:21:24.729Z,27.84
2023-01-13T03:22:24.670Z,30.87
2023-01-13T03:23:24.698Z,26.44
2023-01-13T03:24:24.664Z,29.55
2023-01-13T03:25:24.644Z,27.32
2023-01-13T03:26:24.648Z,27.14
2023-01-13T03:27:24.625Z,26.75
2023-01-13T03:28:24.632Z,30.23
2023-01-13T03:29:24.612Z,26.54
2023-01-13T03:30:24.701Z,28.73
2023-01-13T03:31:24.597Z,27.98
2023-01-13T03:32:24.583Z,26.30
2023-01-13T03:33:24.571Z,28.13
2023-01-13T03:34:24.588Z,28.71
2023-01-13T03:35:24.552Z,28.80
2023-01-13T03:36:24.549Z,25.10
2023-01-13T03:37:24.547Z,30.70
2023-01-13T03:38:24.532Z,27.29
2023-01-13T03:39:24.522Z,27.34
2023-01-13T03:40:24.529Z,29.74
2023-01-13T03:41:24.517Z,28.06
2023-01-13T03:42:24.505Z,26.04
2023-01-13T03:43:24.490Z,26.37
2023-01-13T03:44:24.542Z,30.56
2023-01-13T03:45:24.471Z,26.03
2023-01-13T03:46:24.549Z,29.42
2023-01-13T03:47:24.443Z,28.36
2023-01-13T03:48:24.444Z,27.07
2023-01-13T03:49:24.428Z,25.51
2023-01-13T03:50:24.463Z,27.44
2023-01-13T03:51:24.412Z,29.05
2023-01-13T03:52:24.414Z,26.08
2023-01-13T03:53:24.408Z,27.88
2023-01-13T03:54:24.388Z,25.00
2023-01-13T03:55:24.373Z,30.38
2023-01-13T03:56:24.371Z,28.70
2023-01-13T03:57:24.357Z,26.53
2023-01-13T03:58:24.349Z,29.75
2023-01-13T03:59:24.345Z,27.50
2023-01-13T04:00:24.337Z,28.54
2023-01-13T04:01:24.449Z,29.17
2023-01-13T04:02:24.316Z,27.88
2023-01-13T04:03:24.417Z,28.40
2023-01-13T04:04:24.300Z,30.49
2023-01-13T04:05:24.287Z,30.69
2023-01-13T04:06:24.314Z,29.24
2023-01-13T04:07:24.271Z,27.97
2023-01-13T04:08:24.262Z,27.21
2023-01-13T04:09:24.252Z,28.42
2023-01-13T04:10:24.249Z,27.62
2023-01-13T04:11:24.234Z,31.67
2023-01-13T04:12:24.224Z,29.36
2023-01-13T04:13:24.224Z,27.53
2023-01-13T04:14:24.208Z,29.20
2023-01-13T04:15:24.275Z,30.46
2023-01-13T04:16:24.250Z,28.22
2023-01-13T04:17:24.186Z,29.88
2023-01-13T04:19:24.160Z,32.29
2023-01-13T04:20:24.160Z,29.50
2023-01-13T04:21:24.149Z,28.53
2023-01-13T04:22:24.176Z,29.87
2023-01-13T04:23:24.128Z,28.89
2023-01-13T04:24:24.124Z,29.41
2023-01-13T04:25:24.108Z,30.76
2023-01-13T04:26:24.104Z,30.11
2023-01-13T04:27:24.116Z,29.64
2023-01-13T04:28:24.094Z,29.30
2023-01-13T04:29:24.082Z,29.45
2023-01-13T04:30:24.074Z,27.65
2023-01-13T04:31:24.152Z,30.56
2023-01-13T04:32:24.049Z,27.18
2023-01-13T04:33:24.039Z,31.63
2023-01-13T04:34:24.146Z,29.60
2023-01-13T04:35:24.027Z,31.11
2023-01-13T04:36:24.015Z,29.99
2023-01-13T04:37:24.019Z,31.09
2023-01-13T04:38:24.022Z,30.98
2023-01-13T04:39:23.990Z,32.02
2023-01-13T04:40:23.977Z,30.86
2023-01-13T04:41:23.976Z,29.60
2023-01-13T04:42:23.960Z,30.41
2023-01-13T04:43:23.956Z,28.81
2023-01-13T04:44:23.944Z,30.49
2023-01-13T04:45:23.944Z,31.83
2023-01-13T04:46:23.981Z,30.17
2023-01-13T04:48:23.911Z,28.36
2023-01-13T04:49:23.900Z,31.38
2023-01-13T04:50:23.890Z,29.24
2023-01-13T04:51:23.890Z,31.98
2023-01-13T04:52:23.886Z,28.42
2023-01-13T04:53:23.866Z,30.81
2023-01-13T04:54:23.883Z,29.68
2023-01-13T04:55:23.856Z,31.42
2023-01-13T04:56:23.849Z,29.50
2023-01-13T04:57:23.829Z,30.25
2023-01-13T04:58:23.828Z,29.88
2023-01-13T04:59:23.819Z,31.13
2023-01-13T05:00:23.794Z,29.71
2023-01-13T05:01:23.927Z,32.05
2023-01-13T05:02:23.860Z,32.94
2023-01-13T05:03:23.770Z,28.29
2023-01-13T05:04:23.797Z,32.94
2023-01-13T05:05:23.759Z,31.79
2023-01-13T05:06:23.756Z,29.68
2023-01-13T05:07:23.739Z,33.33
2023-01-13T05:08:23.731Z,31.13
2023-01-13T05:09:23.721Z,30.69
2023-01-13T05:10:24.222Z,32.87
2023-01-13T05:11:23.713Z,28.29
2023-01-13T05:12:23.694Z,29.38
2023-01-13T05:13:23.693Z,30.24
2023-01-13T05:14:23.702Z,30.28
2023-01-13T05:15:23.669Z,34.80
2023-01-13T05:16:23.764Z,29.40
2023-01-13T05:17:23.647Z,32.88
2023-01-13T05:18:23.642Z,32.55
2023-01-13T05:19:23.641Z,30.67
2023-01-13T05:20:23.625Z,31.42
2023-01-13T05:21:23.641Z,31.04
2023-01-13T05:22:23.601Z,32.66
2023-01-13T05:23:23.634Z,30.42
2023-01-13T05:24:23.668Z,34.43
2023-01-13T05:25:23.576Z,33.41
2023-01-13T05:26:23.599Z,33.48
2023-01-13T05:27:23.568Z,34.03
2023-01-13T05:28:23.555Z,33.32
2023-01-13T05:29:23.555Z,31.75
2023-01-13T05:30:23.537Z,33.25
2023-01-13T05:31:23.577Z,30.97
2023-01-13T05:32:23.528Z,31.90
2023-01-13T05:33:23.525Z,33.81
2023-01-13T05:34:23.504Z,33.12
2023-01-13T05:35:23.509Z,35.07
2023-01-13T05:36:23.497Z,33.28
2023-01-13T05:37:23.549Z,32.20
2023-01-13T05:38:23.496Z,33.84
2023-01-13T05:39:23.481Z,34.67
2023-01-13T05:40:23.454Z,31.92
2023-01-13T05:41:23.440Z,33.31
2023-01-13T05:42:23.458Z,32.14
2023-01-13T05:43:23.428Z,34.60
2023-01-13T05:44:23.411Z,36.14
2023-01-13T05:45:23.406Z,34.35
2023-01-13T05:46:23.423Z,32.40
2023-01-13T05:47:23.382Z,35.57
2023-01-13T05:48:23.380Z,34.84
2023-01-13T05:49:23.378Z,35.07
2023-01-13T05:50:23.359Z,33.86
2023-01-13T05:51:23.350Z,33.26
2023-01-13T05:52:23.337Z,34.24
2023-01-13T05:53:23.330Z,34.05
2023-01-13T05:54:23.331Z,34.35
2023-01-13T05:55:23.325Z,31.80
2023-01-13T05:56:23.304Z,35.19
2023-01-13T05:57:23.301Z,32.52
2023-01-13T05:58:23.316Z,35.38
2023-01-13T05:59:23.283Z,34.69
2023-01-13T06:00:23.287Z,35.53
2023-01-13T06:01:23.360Z,34.62
2023-01-13T06:02:23.251Z,35.61
2023-01-13T06:03:23.248Z,35.82
2023-01-13T06:04:23.268Z,34.66
2023-01-13T06:05:23.236Z,36.76
2023-01-13T06:06:23.223Z,35.76
2023-01-13T06:07:23.208Z,35.66
2023-01-13T06:08:23.680Z,34.63
2023-01-13T06:09:23.189Z,35.46
2023-01-13T06:10:23.180Z,34.47
2023-01-13T06:11:23.192Z,31.50
2023-01-13T06:12:23.166Z,36.65
2023-01-13T06:13:23.160Z,32.84
2023-01-13T06:14:23.176Z,36.94
2023-01-13T06:15:23.139Z,37.11
2023-01-13T06:16:23.195Z,34.74
2023-01-13T06:17:23.122Z,36.57
2023-01-13T06:18:23.138Z,34.02
2023-01-13T06:19:23.136Z,33.71
2023-01-13T06:20:23.100Z,35.93
2023-01-13T06:21:23.187Z,34.93
2023-01-13T06:22:23.080Z,35.53
2023-01-13T06:23:23.086Z,39.56
2023-01-13T06:24:23.183Z,40.23
2023-01-13T06:25:23.066Z,37.79
2023-01-13T06:26:23.054Z,38.89
2023-01-13T06:27:23.057Z,40.59
2023-01-13T06:28:23.189Z,50.01
2023-01-13T06:29:23.020Z,48.80
2023-01-13T06:30:23.037Z,49.52
2023-01-13T06:31:23.086Z,47.23
2023-01-13T06:32:22.988Z,47.54
2023-01-13T06:33:23.028Z,47.86
2023-01-13T06:34:22.973Z,47.81
2023-01-13T06:35:22.966Z,48.58
2023-01-13T06:36:23.191Z,46.70
2023-01-13T06:37:22.958Z,46.90
2023-01-13T06:38:22.953Z,49.25
2023-01-13T06:39:22.935Z,48.89
2023-01-13T06:40:23.927Z,51.85
2023-01-13T06:41:22.911Z,52.84
2023-01-13T06:43:23.210Z,51.84
2023-01-13T06:44:22.881Z,54.40
2023-01-13T06:45:22.874Z,57.11
2023-01-13T06:46:22.959Z,56.89
2023-01-13T06:47:22.854Z,57.14
2023-01-13T06:48:24.655Z,57.07
2023-01-13T06:49:22.852Z,58.21
2023-01-13T06:50:22.823Z,62.10
2023-01-13T06:51:22.825Z,59.58
2023-01-13T06:52:23.209Z,56.39
2023-01-13T06:53:23.232Z,55.36
2023-01-13T06:54:22.802Z,57.17
2023-01-13T06:55:23.377Z,58.01
2023-01-13T06:56:22.822Z,56.19
2023-01-13T06:57:22.782Z,56.72
2023-01-13T06:58:23.195Z,54.24
2023-01-13T06:59:22.767Z,55.51
2023-01-13T07:00:22.797Z,56.67
2023-01-13T07:01:22.947Z,59.51
2023-01-13T07:02:22.920Z,61.60
2023-01-13T07:03:23.198Z,64.54
2023-01-13T07:04:22.708Z,65.19
2023-01-13T07:05:22.688Z,66.66
2023-01-13T07:06:22.694Z,68.05
2023-01-13T07:07:22.670Z,68.57
2023-01-13T07:08:22.904Z,71.92
2023-01-13T07:09:22.660Z,70.05
2023-01-13T07:10:22.826Z,75.05
2023-01-13T07:11:22.707Z,74.33
2023-01-13T07:12:22.657Z,80.56
2023-01-13T07:13:22.618Z,82.01
2023-01-13T07:14:22.652Z,87.81
2023-01-13T07:16:22.642Z,96.80
2023-01-13T07:17:22.632Z,99.14
2023-01-13T07:18:23.168Z,105.03
2023-01-13T07:19:22.706Z,104.29
2023-01-13T07:20:22.588Z,109.77
2023-01-13T07:21:21.582Z,112.50
2023-01-13T07:22:22.575Z,116.02
2023-01-13T07:23:22.738Z,118.28
2023-01-13T07:24:22.965Z,122.68
2023-01-13T07:25:22.518Z,122.18
2023-01-13T07:26:22.548Z,123.41
2023-01-13T07:27:22.496Z,126.27
2023-01-13T07:28:22.490Z,130.15
2023-01-13T07:29:22.805Z,130.70
2023-01-13T07:30:22.510Z,134.34
2023-01-13T07:31:22.503Z,131.92
2023-01-13T07:32:22.450Z,133.37
2023-01-13T07:33:22.458Z,135.97
2023-01-13T07:34:22.470Z,138.16
2023-01-13T07:35:22.420Z,136.90
2023-01-13T07:36:22.420Z,136.18
2023-01-13T07:37:22.709Z,133.74
2023-01-13T07:38:22.391Z,135.52
2023-01-13T07:39:22.389Z,134.64
2023-01-13T07:40:22.714Z,132.42
2023-01-13T07:41:22.372Z,132.90
2023-01-13T07:42:22.365Z,128.90
2023-01-13T07:43:22.354Z,128.23
2023-01-13T07:44:22.354Z,125.39
2023-01-13T07:45:22.371Z,128.05
2023-01-13T07:46:22.322Z,126.69
2023-01-13T07:47:22.319Z,128.54
2023-01-13T07:48:22.712Z,127.48
2023-01-13T07:49:22.293Z,125.48
2023-01-13T07:50:22.311Z,123.59
2023-01-13T07:51:22.307Z,125.38
2023-01-13T07:52:22.270Z,126.28
2023-01-13T07:53:22.776Z,123.80
2023-01-13T07:54:35.227Z,122.64
2023-01-13T07:55:22.249Z,122.93
2023-01-13T07:56:22.724Z,123.65
2023-01-13T07:57:22.239Z,124.90
2023-01-13T07:58:22.215Z,124.93
2023-01-13T07:59:22.218Z,128.66
2023-01-13T08:00:22.198Z,123.12
2023-01-13T08:01:22.395Z,124.82
2023-01-13T08:02:22.458Z,123.94
2023-01-13T08:03:22.169Z,125.17
2023-01-13T08:04:22.170Z,122.97
2023-01-13T08:05:22.164Z,121.99
2023-01-13T08:06:22.180Z,120.84
2023-01-13T08:07:22.153Z,121.59
2023-01-13T08:08:22.157Z,119.93
2023-01-13T08:09:22.248Z,119.17
2023-01-13T08:10:22.496Z,120.64
2023-01-13T08:11:23.611Z,119.93
2023-01-13T08:12:22.246Z,122.99
2023-01-13T08:13:22.228Z,121.68
2023-01-13T08:15:22.217Z,118.74
2023-01-13T08:16:22.246Z,116.82
2023-01-13T08:17:22.220Z,117.04
2023-01-13T08:18:22.489Z,118.43
2023-01-13T08:19:22.181Z,116.16
2023-01-13T08:20:22.246Z,118.07
2023-01-13T08:21:22.175Z,115.44
2023-01-13T08:22:22.180Z,115.63
2023-01-13T08:23:22.139Z,115.25
2023-01-13T08:24:22.143Z,115.71
2023-01-13T08:25:22.311Z,116.02
2023-01-13T08:26:22.172Z,116.87
2023-01-13T08:27:22.132Z,115.57
2023-01-13T08:28:22.116Z,115.34
2023-01-13T08:29:22.135Z,114.58
2023-01-13T08:30:22.268Z,112.06
2023-01-13T08:31:22.161Z,113.57
2023-01-13T08:32:22.698Z,112.24
2023-01-13T08:33:22.088Z,112.50
2023-01-13T08:34:22.227Z,112.96
2023-01-13T08:35:22.256Z,113.12
2023-01-13T08:36:22.078Z,111.95
2023-01-13T08:37:22.039Z,113.34
2023-01-13T08:38:22.284Z,110.65
2023-01-13T08:39:22.031Z,110.40
2023-01-13T08:40:22.049Z,111.30
2023-01-13T08:41:21.992Z,113.95
2023-01-13T08:42:21.978Z,112.80
2023-01-13T08:43:22.260Z,111.44
2023-01-13T08:44:22.343Z,110.30
2023-01-13T08:45:22.415Z,109.98
2023-01-13T08:46:22.024Z,109.95
2023-01-13T08:47:21.986Z,109.87
2023-01-13T08:48:22.256Z,111.03
2023-01-13T08:49:22.268Z,110.19
2023-01-13T08:51:21.914Z,110.48
2023-01-13T08:52:21.902Z,110.73
2023-01-13T08:53:22.231Z,108.90
2023-01-13T08:54:21.917Z,109.26
2023-01-13T08:55:21.892Z,109.63
2023-01-13T08:56:22.254Z,110.56
2023-01-13T08:57:21.991Z,109.77
2023-01-13T08:58:21.836Z,108.24
2023-01-13T08:59:21.847Z,108.17
2023-01-13T09:00:21.835Z,109.05
2023-01-13T09:01:22.413Z,108.80
2023-01-13T09:02:21.843Z,107.84
2023-01-13T09:03:21.816Z,107.47
2023-01-13T09:04:21.858Z,109.28
2023-01-13T09:05:21.792Z,109.11
2023-01-13T09:06:22.260Z,108.12
2023-01-13T09:07:21.775Z,110.41
2023-01-13T09:08:21.763Z,112.08
2023-01-13T09:09:21.763Z,110.92
2023-01-13T09:10:21.787Z,109.38
2023-01-13T09:11:21.773Z,108.12
2023-01-13T09:12:21.747Z,108.78
2023-01-13T09:13:21.718Z,107.44
2023-01-13T09:14:21.767Z,109.03
2023-01-13T09:15:21.729Z,109.22
2023-01-13T09:16:21.694Z,110.89
2023-01-13T09:17:21.673Z,108.49
2023-01-13T09:18:21.670Z,108.87
2023-01-13T09:19:21.656Z,107.13
2023-01-13T09:20:21.776Z,107.01
2023-01-13T09:21:21.642Z,109.18
2023-01-13T09:22:21.650Z,109.38
2023-01-13T09:23:21.627Z,108.08
2023-01-13T09:24:21.621Z,108.26
2023-01-13T09:25:21.758Z,108.19
2023-01-13T09:26:21.711Z,107.55
2023-01-13T09:27:21.570Z,107.48
2023-01-13T09:28:21.576Z,108.15
2023-01-13T09:29:21.580Z,108.12
2023-01-13T09:30:21.772Z,110.36
2023-01-13T09:31:21.596Z,110.55
2023-01-13T09:32:21.517Z,108.42
2023-01-13T09:33:21.529Z,108.69
2023-01-13T09:34:21.532Z,111.07
2023-01-13T09:35:21.510Z,107.50
2023-01-13T09:36:21.504Z,109.40
2023-01-13T09:37:21.778Z,110.89
2023-01-13T09:38:21.498Z,108.64
2023-01-13T09:39:21.514Z,110.05
2023-01-13T09:40:21.494Z,108.67
2023-01-13T09:41:21.480Z,108.22
2023-01-13T09:42:21.814Z,110.12
2023-01-13T09:44:21.435Z,110.25
2023-01-13T09:45:21.424Z,110.64
2023-01-13T09:46:21.472Z,110.56
2023-01-13T09:47:21.783Z,112.04
2023-01-13T09:48:21.530Z,113.84
2023-01-13T09:49:21.431Z,111.70
2023-01-13T09:50:21.446Z,108.13
2023-01-13T09:51:21.809Z,112.40
2023-01-13T09:52:21.378Z,111.89
2023-01-13T09:53:21.378Z,108.83
2023-01-13T09:54:21.351Z,109.29
2023-01-13T09:55:21.357Z,111.33
2023-01-13T09:56:21.790Z,112.44
2023-01-13T09:57:21.791Z,108.99
2023-01-13T09:59:21.318Z,108.61
2023-01-13T10:00:21.278Z,109.13
2023-01-13T10:01:21.318Z,109.52
2023-01-13T10:02:21.392Z,110.23
2023-01-13T10:03:21.350Z,111.42
2023-01-13T10:04:21.328Z,109.46
2023-01-13T10:05:21.299Z,112.45
2023-01-13T10:06:21.263Z,112.76
2023-01-13T10:07:23.038Z,109.37
2023-01-13T10:08:21.202Z,115.80
2023-01-13T10:09:21.213Z,115.34
2023-01-13T10:10:21.289Z,114.74
2023-01-13T10:11:21.253Z,112.37
2023-01-13T10:12:21.319Z,109.76
2023-01-13T10:13:21.184Z,111.33
2023-01-13T10:14:21.177Z,111.42
2023-01-13T10:15:21.165Z,112.12
2023-01-13T10:16:21.273Z,110.07
2023-01-13T10:17:21.294Z,112.28
2023-01-13T10:18:21.140Z,110.71
2023-01-13T10:19:21.108Z,112.42
2023-01-13T10:20:21.104Z,112.02
2023-01-13T10:21:21.089Z,112.31
2023-01-13T10:22:21.075Z,111.32
2023-01-13T10:23:21.066Z,112.60
2023-01-13T10:24:21.064Z,111.51
2023-01-13T10:25:21.068Z,112.33
2023-01-13T10:27:21.034Z,111.95
2023-01-13T10:28:21.118Z,112.03
2023-01-13T10:29:21.116Z,112.22
2023-01-13T10:30:21.394Z,112.52
2023-01-13T10:31:21.047Z,116.10
2023-01-13T10:32:20.983Z,115.93
2023-01-13T10:33:20.997Z,114.82
2023-01-13T10:34:20.973Z,116.19
2023-01-13T10:35:21.291Z,116.81
2023-01-13T10:36:20.972Z,119.79
2023-01-13T10:37:21.278Z,118.91
2023-01-13T10:38:20.945Z,121.09
2023-01-13T10:39:20.927Z,122.70
2023-01-13T10:41:20.927Z,126.41
2023-01-13T10:42:21.275Z,126.75
2023-01-13T10:43:20.939Z,129.65
2023-01-13T10:44:20.918Z,134.53
2023-01-13T10:45:20.880Z,138.59
2023-01-13T10:46:20.995Z,141.81
2023-01-13T10:47:21.294Z,144.19
2023-01-13T10:48:20.876Z,148.11
2023-01-13T10:49:21.191Z,147.20
2023-01-13T10:50:20.871Z,149.83
2023-01-13T10:53:20.796Z,153.05
2023-01-13T10:54:20.804Z,153.30
2023-01-13T10:55:20.799Z,155.07
2023-01-13T10:56:20.782Z,156.22
2023-01-13T10:57:20.791Z,160.65
2023-01-13T10:58:20.827Z,159.54
2023-01-13T10:59:20.816Z,164.28
2023-01-13T11:00:20.920Z,163.71
2023-01-13T11:02:25.965Z,169.55
2023-01-13T11:03:20.729Z,169.87
2023-01-13T11:04:20.817Z,170.26
2023-01-13T11:05:20.750Z,171.30
2023-01-13T11:06:20.709Z,172.77
2023-01-13T11:07:20.672Z,174.66
2023-01-13T11:08:20.664Z,175.66
2023-01-13T11:09:20.665Z,173.10
2023-01-13T11:10:20.682Z,172.77
2023-01-13T11:11:20.639Z,170.71
2023-01-13T11:12:20.769Z,172.87
2023-01-13T11:13:20.795Z,171.11
2023-01-13T11:14:20.638Z,173.55
2023-01-13T11:15:20.632Z,172.26
2023-01-13T11:16:21.096Z,174.54
2023-01-13T11:17:20.804Z,176.89
2023-01-13T11:18:20.792Z,167.52
2023-01-13T11:20:20.592Z,181.06
2023-01-13T11:21:20.580Z,178.92
2023-01-13T11:22:20.883Z,180.89
2023-01-13T11:23:20.809Z,178.56
2023-01-13T11:24:20.527Z,173.01
2023-01-13T11:25:20.514Z,171.26
2023-01-13T11:26:20.508Z,169.95
2023-01-13T11:27:20.520Z,170.55
2023-01-13T11:28:20.831Z,170.59
2023-01-13T11:29:20.501Z,171.22
2023-01-13T11:30:20.471Z,172.17
2023-01-13T11:31:20.588Z,170.25
2023-01-13T11:32:20.452Z,168.79
2023-01-13T11:33:20.439Z,170.59
2023-01-13T11:34:20.464Z,168.88
2023-01-13T11:35:20.423Z,168.24
2023-01-13T11:36:20.804Z,171.01
2023-01-13T11:37:20.833Z,169.79
2023-01-13T11:38:20.445Z,168.61
2023-01-13T11:39:20.815Z,170.99
2023-01-13T11:41:20.797Z,174.85
2023-01-13T11:42:20.814Z,173.90
2023-01-13T11:43:20.359Z,173.36
2023-01-13T11:44:20.354Z,173.61
2023-01-13T11:45:20.340Z,172.61
2023-01-13T11:46:20.412Z,171.92
2023-01-13T11:47:20.830Z,171.38
2023-01-13T11:48:20.307Z,171.31
2023-01-13T11:49:22.268Z,135.20
2023-01-13T11:50:20.317Z,90.75
2023-01-13T11:51:20.274Z,110.99
2023-01-13T11:52:20.315Z,105.98
2023-01-13T11:53:20.283Z,78.51
2023-01-13T11:54:20.301Z,79.54
2023-01-13T11:55:22.537Z,73.83
2023-01-13T11:56:20.251Z,74.28
2023-01-13T11:57:20.223Z,62.76
2023-01-13T11:58:20.228Z,53.96
2023-01-13T11:59:20.209Z,39.76
2023-01-13T12:00:20.207Z,49.33
2023-01-13T12:01:23.069Z,49.52
2023-01-13T12:02:20.276Z,49.99
2023-01-13T12:03:20.247Z,51.73
2023-01-13T12:04:20.315Z,54.65
2023-01-13T12:05:20.154Z,58.07
2023-01-13T12:06:20.171Z,70.41
2023-01-13T12:07:22.857Z,77.16
2023-01-13T12:08:20.139Z,77.67
2023-01-13T12:09:20.335Z,79.63
2023-01-13T12:10:20.113Z,84.85
2023-01-13T12:11:20.136Z,91.91
2023-01-13T12:12:20.103Z,107.28
2023-01-13T12:13:20.085Z,112.65
2023-01-13T12:14:20.313Z,121.41
2023-01-13T12:15:20.065Z,121.96
2023-01-13T12:17:20.052Z,136.59
2023-01-13T12:18:20.079Z,140.25
2023-01-13T12:19:20.343Z,143.16
2023-01-13T12:20:20.024Z,148.76
2023-01-13T12:21:20.076Z,151.57
2023-01-13T12:22:20.052Z,157.04
2023-01-13T12:23:20.003Z,160.10
2023-01-13T12:24:19.986Z,161.92
2023-01-13T12:25:19.974Z,165.70
2023-01-13T12:26:19.986Z,168.75
2023-01-13T12:27:19.961Z,169.92
2023-01-13T12:28:20.086Z,167.72
2023-01-13T12:29:19.944Z,170.66
2023-01-13T12:30:19.950Z,174.40
2023-01-13T12:31:19.960Z,178.42
2023-01-13T12:32:19.935Z,183.19
2023-01-13T12:33:19.906Z,184.31
2023-01-13T12:34:19.892Z,191.84
2023-01-13T12:35:20.319Z,193.84
2023-01-13T12:36:19.890Z,194.67
2023-01-13T12:37:19.864Z,202.28
2023-01-13T12:38:19.892Z,207.54
2023-01-13T12:39:19.851Z,210.51
2023-01-13T12:40:19.851Z,214.64
2023-01-13T12:41:19.825Z,220.05
2023-01-13T12:42:19.821Z,220.82
2023-01-13T12:43:19.819Z,223.42
2023-01-13T12:44:19.811Z,225.62
2023-01-13T12:45:19.819Z,225.47
2023-01-13T12:46:19.780Z,227.59
2023-01-13T12:47:19.784Z,232.76
2023-01-13T12:48:19.787Z,234.42
2023-01-13T12:49:19.819Z,238.53
2023-01-13T12:50:19.753Z,245.16
2023-01-13T12:51:19.749Z,246.71
2023-01-13T12:52:19.752Z,247.43
2023-01-13T12:53:19.749Z,248.82
2023-01-13T12:54:19.745Z,247.92
2023-01-13T12:55:19.721Z,229.88
2023-01-13T12:56:19.695Z,165.82
2023-01-13T12:57:19.689Z,161.11
2023-01-13T12:58:19.683Z,139.09
2023-01-13T12:59:19.703Z,135.82
2023-01-13T13:00:19.669Z,121.92
2023-01-13T13:01:19.782Z,112.97
2023-01-13T13:02:19.897Z,95.19
2023-01-13T13:03:19.761Z,80.98
2023-01-13T13:04:19.629Z,57.62
2023-01-13T13:05:19.831Z,51.36
2023-01-13T13:06:19.863Z,25.00
2023-01-13T13:07:19.855Z,26.55
2023-01-13T13:08:19.597Z,25.00
2023-01-13T13:09:19.604Z,27.14
2023-01-13T13:10:19.686Z,25.54
2023-01-13T13:11:19.824Z,29.57
2023-01-13T13:12:19.609Z,25.45
2023-01-13T13:13:19.546Z,33.24
2023-01-13T13:14:19.545Z,51.47
2023-01-13T13:15:19.593Z,57.39
2023-01-13T13:16:19.586Z,66.29
2023-01-13T13:17:19.527Z,70.47
2023-01-13T13:18:19.829Z,76.12
2023-01-13T13:19:19.495Z,81.47
2023-01-13T13:20:19.501Z,81.45
2023-01-13T13:21:19.493Z,83.05
2023-01-13T13:22:19.478Z,91.16
2023-01-13T13:23:19.467Z,94.39
2023-01-13T13:24:19.863Z,102.56
2023-01-13T13:25:19.439Z,105.48
2023-01-13T13:26:19.467Z,109.32
2023-01-13T13:27:19.432Z,112.03
2023-01-13T13:28:19.427Z,117.17
2023-01-13T13:29:19.462Z,122.75
2023-01-13T13:30:19.835Z,124.43
2023-01-13T13:31:19.414Z,129.05
2023-01-13T13:32:19.379Z,131.70
2023-01-13T13:33:19.370Z,140.62
2023-01-13T13:34:19.853Z,148.40
2023-01-13T13:35:19.355Z,157.49
2023-01-13T13:36:19.340Z,163.94
2023-01-13T13:37:19.341Z,167.67
2023-01-13T13:38:19.325Z,172.47
2023-01-13T13:39:19.324Z,176.19
2023-01-13T13:40:19.317Z,173.54
2023-01-13T13:42:19.319Z,166.85
2023-01-13T13:43:19.287Z,166.69
2023-01-13T13:44:19.341Z,169.05
2023-01-13T13:45:19.258Z,161.15
2023-01-13T13:46:19.452Z,163.20
2023-01-13T13:47:19.256Z,166.14
2023-01-13T13:48:19.246Z,165.21
2023-01-13T13:49:19.366Z,168.80
2023-01-13T13:50:19.268Z,172.55
2023-01-13T13:51:19.370Z,176.69
2023-01-13T13:52:19.339Z,177.46